sensor_id;sensor_type;location;lat;lon;timestamp;P1;durP1;ratioP1;P2;durP2;ratioP2
44516;SDS011;30223;17.182;-96.766;2023-02-01T00:00:54;5.28;;;3.40;;
44516;SDS011;30223;17.182;-96.766;2023-02-01T00:03:21;6.80;;;3.78;;
44516;SDS011;30223;17.182;-96.766;2023-02-01T00:05:55;5.03;;;3.53;;
44516;SDS011;30223;17.182;-96.766;2023-02-01T00:08:22;4.07;;;3.63;;
44516;SDS011;30223;17.182;-96.766;2023-02-01T00:10:57;5.88;;;3.90;;
44516;SDS011;30223;17.182;-96.766;2023-02-01T00:13:32;5.38;;;4.05;;
44516;SDS011;30223;17.182;-96.766;2023-02-01T00:16:04;9.45;;;3.75;;
44516;SDS011;30223;17.182;-96.766;2023-02-01T00:18:31;5.70;;;3.53;;
44516;SDS011;30223;17.182;-96.766;2023-02-01T00:20:58;5.78;;;3.60;;
44516;SDS011;30223;17.182;-96.766;2023-02-01T00:23:26;7.75;;;3.60;;
44516;SDS011;30223;17.182;-96.766;2023-02-01T00:25:53;5.30;;;4.13;;
44516;SDS011;30223;17.182;-96.766;2023-02-01T00:28:19;5.70;;;4.63;;
44516;SDS011;30223;17.182;-96.766;2023-02-01T00:30:46;5.05;;;4.25;;
44516;SDS011;30223;17.182;-96.766;2023-02-01T00:33:21;4.90;;;3.75;;
44516;SDS011;30223;17.182;-96.766;2023-02-01T00:35:47;7.70;;;4.55;;
44516;SDS011;30223;17.182;-96.766;2023-02-01T00:38:14;6.00;;;3.50;;
44516;SDS011;30223;17.182;-96.766;2023-02-01T00:40:41;7.07;;;4.18;;
44516;SDS011;30223;17.182;-96.766;2023-02-01T00:43:08;5.18;;;4.65;;
44516;SDS011;30223;17.182;-96.766;2023-02-01T00:45:35;6.15;;;3.67;;
44516;SDS011;30223;17.182;-96.766;2023-02-01T00:48:01;4.72;;;4.15;;
44516;SDS011;30223;17.182;-96.766;2023-02-01T00:50:28;6.00;;;3.90;;
44516;SDS011;30223;17.182;-96.766;2023-02-01T00:52:55;6.45;;;5.00;;
44516;SDS011;30223;17.182;-96.766;2023-02-01T00:55:22;5.45;;;4.55;;
44516;SDS011;30223;17.182;-96.766;2023-02-01T00:57:48;5.30;;;4.10;;
44516;SDS011;30223;17.182;-96.766;2023-02-01T01:00:15;6.93;;;4.05;;
44516;SDS011;30223;17.182;-96.766;2023-02-01T01:02:42;5.82;;;4.30;;
44516;SDS011;30223;17.182;-96.766;2023-02-01T01:05:09;5.65;;;4.20;;
44516;SDS011;30223;17.182;-96.766;2023-02-01T01:07:35;6.50;;;4.00;;
44516;SDS011;30223;17.182;-96.766;2023-02-01T01:10:02;5.07;;;3.80;;
44516;SDS011;30223;17.182;-96.766;2023-02-01T01:12:29;9.93;;;4.68;;
44516;SDS011;30223;17.182;-96.766;2023-02-01T01:14:56;9.85;;;4.65;;
44516;SDS011;30223;17.182;-96.766;2023-02-01T01:17:23;9.55;;;6.45;;
44516;SDS011;30223;17.182;-96.766;2023-02-01T01:19:51;8.75;;;5.55;;
44516;SDS011;30223;17.182;-96.766;2023-02-01T01:22:19;8.32;;;6.00;;
44516;SDS011;30223;17.182;-96.766;2023-02-01T01:24:46;8.88;;;6.47;;
44516;SDS011;30223;17.182;-96.766;2023-02-01T01:27:14;11.43;;;5.07;;
44516;SDS011;30223;17.182;-96.766;2023-02-01T01:29:48;8.75;;;6.38;;
44516;SDS011;30223;17.182;-96.766;2023-02-01T01:32:16;7.65;;;5.82;;
44516;SDS011;30223;17.182;-96.766;2023-02-01T01:34:43;7.30;;;5.43;;
44516;SDS011;30223;17.182;-96.766;2023-02-01T01:37:14;8.10;;;5.18;;
44516;SDS011;30223;17.182;-96.766;2023-02-01T01:39:41;12.18;;;5.63;;
44516;SDS011;30223;17.182;-96.766;2023-02-01T01:42:10;11.77;;;4.97;;
44516;SDS011;30223;17.182;-96.766;2023-02-01T01:47:31;10.68;;;6.60;;
44516;SDS011;30223;17.182;-96.766;2023-02-01T01:50:10;11.00;;;5.95;;
44516;SDS011;30223;17.182;-96.766;2023-02-01T01:52:42;10.20;;;6.95;;
44516;SDS011;30223;17.182;-96.766;2023-02-01T01:55:13;12.95;;;7.25;;
44516;SDS011;30223;17.182;-96.766;2023-02-01T01:57:43;12.40;;;6.00;;
44516;SDS011;30223;17.182;-96.766;2023-02-01T02:00:16;12.00;;;5.63;;
44516;SDS011;30223;17.182;-96.766;2023-02-01T02:02:46;9.25;;;6.07;;
44516;SDS011;30223;17.182;-96.766;2023-02-01T02:05:22;10.32;;;6.47;;
44516;SDS011;30223;17.182;-96.766;2023-02-01T02:07:51;8.15;;;6.32;;
44516;SDS011;30223;17.182;-96.766;2023-02-01T02:10:23;12.43;;;6.32;;
44516;SDS011;30223;17.182;-96.766;2023-02-01T02:13:10;11.52;;;6.60;;
44516;SDS011;30223;17.182;-96.766;2023-02-01T02:18:15;10.07;;;6.68;;
44516;SDS011;30223;17.182;-96.766;2023-02-01T02:21:01;12.07;;;7.15;;
44516;SDS011;30223;17.182;-96.766;2023-02-01T02:23:47;9.40;;;6.53;;
44516;SDS011;30223;17.182;-96.766;2023-02-01T02:29:54;9.13;;;6.68;;
44516;SDS011;30223;17.182;-96.766;2023-02-01T02:41:01;10.55;;;5.90;;
44516;SDS011;30223;17.182;-96.766;2023-02-01T02:43:47;12.02;;;7.38;;
44516;SDS011;30223;17.182;-96.766;2023-02-01T02:46:41;17.50;;;8.48;;
44516;SDS011;30223;17.182;-96.766;2023-02-01T02:49:36;9.73;;;6.47;;
44516;SDS011;30223;17.182;-96.766;2023-02-01T02:52:13;10.65;;;6.55;;
44516;SDS011;30223;17.182;-96.766;2023-02-01T02:55:02;14.35;;;6.05;;
44516;SDS011;30223;17.182;-96.766;2023-02-01T02:57:37;12.70;;;6.95;;
44516;SDS011;30223;17.182;-96.766;2023-02-01T03:00:27;9.90;;;6.10;;
44516;SDS011;30223;17.182;-96.766;2023-02-01T03:03:15;7.53;;;5.95;;
44516;SDS011;30223;17.182;-96.766;2023-02-01T03:06:01;9.07;;;5.90;;
44516;SDS011;30223;17.182;-96.766;2023-02-01T03:08:29;14.87;;;6.97;;
44516;SDS011;30223;17.182;-96.766;2023-02-01T03:16:22;11.63;;;6.47;;
44516;SDS011;30223;17.182;-96.766;2023-02-01T03:18:58;13.32;;;6.43;;
44516;SDS011;30223;17.182;-96.766;2023-02-01T03:24:17;11.68;;;5.70;;
44516;SDS011;30223;17.182;-96.766;2023-02-01T03:29:56;9.98;;;6.28;;
44516;SDS011;30223;17.182;-96.766;2023-02-01T03:32:37;8.27;;;4.72;;
44516;SDS011;30223;17.182;-96.766;2023-02-01T03:38:21;13.18;;;5.95;;
44516;SDS011;30223;17.182;-96.766;2023-02-01T03:41:08;7.10;;;6.13;;
44516;SDS011;30223;17.182;-96.766;2023-02-01T03:44:07;8.60;;;5.13;;
44516;SDS011;30223;17.182;-96.766;2023-02-01T03:46:48;11.45;;;5.85;;
44516;SDS011;30223;17.182;-96.766;2023-02-01T03:52:03;15.18;;;5.75;;
44516;SDS011;30223;17.182;-96.766;2023-02-01T03:54:32;6.78;;;5.82;;
44516;SDS011;30223;17.182;-96.766;2023-02-01T03:57:00;7.97;;;5.13;;
44516;SDS011;30223;17.182;-96.766;2023-02-01T03:59:32;8.23;;;4.57;;
44516;SDS011;30223;17.182;-96.766;2023-02-01T04:01:59;12.45;;;5.15;;
44516;SDS011;30223;17.182;-96.766;2023-02-01T04:04:26;6.93;;;5.00;;
44516;SDS011;30223;17.182;-96.766;2023-02-01T04:06:53;12.23;;;5.75;;
44516;SDS011;30223;17.182;-96.766;2023-02-01T04:09:20;7.72;;;5.18;;
44516;SDS011;30223;17.182;-96.766;2023-02-01T04:11:47;11.43;;;4.97;;
44516;SDS011;30223;17.182;-96.766;2023-02-01T04:14:14;6.07;;;4.20;;
44516;SDS011;30223;17.182;-96.766;2023-02-01T04:16:42;10.65;;;5.32;;
44516;SDS011;30223;17.182;-96.766;2023-02-01T04:19:09;9.55;;;5.18;;
44516;SDS011;30223;17.182;-96.766;2023-02-01T04:21:37;9.27;;;4.70;;
44516;SDS011;30223;17.182;-96.766;2023-02-01T04:24:04;5.22;;;4.35;;
44516;SDS011;30223;17.182;-96.766;2023-02-01T04:26:31;9.05;;;4.88;;
44516;SDS011;30223;17.182;-96.766;2023-02-01T04:28:59;17.08;;;6.22;;
44516;SDS011;30223;17.182;-96.766;2023-02-01T04:31:26;8.05;;;5.05;;
44516;SDS011;30223;17.182;-96.766;2023-02-01T04:33:54;12.95;;;5.63;;
44516;SDS011;30223;17.182;-96.766;2023-02-01T04:36:25;10.70;;;5.18;;
44516;SDS011;30223;17.182;-96.766;2023-02-01T04:38:52;10.93;;;5.18;;
44516;SDS011;30223;17.182;-96.766;2023-02-01T04:41:19;7.25;;;5.07;;
44516;SDS011;30223;17.182;-96.766;2023-02-01T04:43:48;10.65;;;5.55;;
44516;SDS011;30223;17.182;-96.766;2023-02-01T04:46:20;5.65;;;4.05;;
44516;SDS011;30223;17.182;-96.766;2023-02-01T04:48:47;13.32;;;5.40;;
44516;SDS011;30223;17.182;-96.766;2023-02-01T04:51:14;5.93;;;4.13;;
44516;SDS011;30223;17.182;-96.766;2023-02-01T04:53:40;9.45;;;5.70;;
44516;SDS011;30223;17.182;-96.766;2023-02-01T04:56:07;10.63;;;6.03;;
44516;SDS011;30223;17.182;-96.766;2023-02-01T04:58:34;14.48;;;4.97;;
44516;SDS011;30223;17.182;-96.766;2023-02-01T05:01:04;10.32;;;5.60;;
44516;SDS011;30223;17.182;-96.766;2023-02-01T05:03:32;8.48;;;5.10;;
44516;SDS011;30223;17.182;-96.766;2023-02-01T05:05:59;7.78;;;4.70;;
44516;SDS011;30223;17.182;-96.766;2023-02-01T05:08:26;8.27;;;4.53;;
44516;SDS011;30223;17.182;-96.766;2023-02-01T05:10:54;8.90;;;5.18;;
44516;SDS011;30223;17.182;-96.766;2023-02-01T05:13:20;6.68;;;5.07;;
44516;SDS011;30223;17.182;-96.766;2023-02-01T05:16:06;6.47;;;4.85;;
44516;SDS011;30223;17.182;-96.766;2023-02-01T05:18:34;9.88;;;4.90;;
44516;SDS011;30223;17.182;-96.766;2023-02-01T05:21:00;9.25;;;4.53;;
44516;SDS011;30223;17.182;-96.766;2023-02-01T05:23:27;8.40;;;4.07;;
44516;SDS011;30223;17.182;-96.766;2023-02-01T05:25:58;10.35;;;4.97;;
44516;SDS011;30223;17.182;-96.766;2023-02-01T05:28:26;9.73;;;4.50;;
44516;SDS011;30223;17.182;-96.766;2023-02-01T05:30:53;5.97;;;5.03;;
44516;SDS011;30223;17.182;-96.766;2023-02-01T05:33:20;9.00;;;5.18;;
44516;SDS011;30223;17.182;-96.766;2023-02-01T05:35:47;5.45;;;4.18;;
44516;SDS011;30223;17.182;-96.766;2023-02-01T05:38:13;9.30;;;4.55;;
44516;SDS011;30223;17.182;-96.766;2023-02-01T05:40:40;5.78;;;4.60;;
44516;SDS011;30223;17.182;-96.766;2023-02-01T05:43:07;10.68;;;4.45;;
44516;SDS011;30223;17.182;-96.766;2023-02-01T05:45:33;6.93;;;5.10;;
44516;SDS011;30223;17.182;-96.766;2023-02-01T05:48:00;7.93;;;4.22;;
44516;SDS011;30223;17.182;-96.766;2023-02-01T05:50:26;9.90;;;4.63;;
44516;SDS011;30223;17.182;-96.766;2023-02-01T05:52:53;9.15;;;4.72;;
44516;SDS011;30223;17.182;-96.766;2023-02-01T05:55:20;7.22;;;4.15;;
44516;SDS011;30223;17.182;-96.766;2023-02-01T05:57:46;8.65;;;4.95;;
44516;SDS011;30223;17.182;-96.766;2023-02-01T06:00:13;8.52;;;4.47;;
44516;SDS011;30223;17.182;-96.766;2023-02-01T06:02:40;8.93;;;4.90;;
44516;SDS011;30223;17.182;-96.766;2023-02-01T06:05:07;8.93;;;4.20;;
44516;SDS011;30223;17.182;-96.766;2023-02-01T06:07:34;6.80;;;3.90;;
44516;SDS011;30223;17.182;-96.766;2023-02-01T06:10:00;7.78;;;3.78;;
44516;SDS011;30223;17.182;-96.766;2023-02-01T06:12:27;6.82;;;4.03;;
44516;SDS011;30223;17.182;-96.766;2023-02-01T06:14:54;7.35;;;3.92;;
44516;SDS011;30223;17.182;-96.766;2023-02-01T06:17:20;6.65;;;4.53;;
44516;SDS011;30223;17.182;-96.766;2023-02-01T06:19:47;4.65;;;3.40;;
44516;SDS011;30223;17.182;-96.766;2023-02-01T06:22:14;6.57;;;4.20;;
44516;SDS011;30223;17.182;-96.766;2023-02-01T06:24:40;5.22;;;3.72;;
44516;SDS011;30223;17.182;-96.766;2023-02-01T06:27:07;6.22;;;4.25;;
44516;SDS011;30223;17.182;-96.766;2023-02-01T06:29:34;6.85;;;4.63;;
44516;SDS011;30223;17.182;-96.766;2023-02-01T06:32:01;5.47;;;3.55;;
44516;SDS011;30223;17.182;-96.766;2023-02-01T06:34:28;8.82;;;3.92;;
44516;SDS011;30223;17.182;-96.766;2023-02-01T06:36:55;4.90;;;3.53;;
44516;SDS011;30223;17.182;-96.766;2023-02-01T06:39:21;7.43;;;4.40;;
44516;SDS011;30223;17.182;-96.766;2023-02-01T06:41:48;6.10;;;3.35;;
44516;SDS011;30223;17.182;-96.766;2023-02-01T06:44:15;6.75;;;4.32;;
44516;SDS011;30223;17.182;-96.766;2023-02-01T06:46:42;6.57;;;3.90;;
44516;SDS011;30223;17.182;-96.766;2023-02-01T06:49:09;6.43;;;3.47;;
44516;SDS011;30223;17.182;-96.766;2023-02-01T06:51:35;5.60;;;3.75;;
44516;SDS011;30223;17.182;-96.766;2023-02-01T06:54:02;5.00;;;3.90;;
44516;SDS011;30223;17.182;-96.766;2023-02-01T06:56:28;4.93;;;3.47;;
44516;SDS011;30223;17.182;-96.766;2023-02-01T06:58:56;5.25;;;3.70;;
44516;SDS011;30223;17.182;-96.766;2023-02-01T07:01:23;5.30;;;3.53;;
44516;SDS011;30223;17.182;-96.766;2023-02-01T07:03:50;4.88;;;3.53;;
44516;SDS011;30223;17.182;-96.766;2023-02-01T07:06:17;7.63;;;4.15;;
44516;SDS011;30223;17.182;-96.766;2023-02-01T07:08:44;4.65;;;3.00;;
44516;SDS011;30223;17.182;-96.766;2023-02-01T07:11:11;5.28;;;3.90;;
44516;SDS011;30223;17.182;-96.766;2023-02-01T07:13:39;6.13;;;3.75;;
44516;SDS011;30223;17.182;-96.766;2023-02-01T07:16:08;5.38;;;3.70;;
44516;SDS011;30223;17.182;-96.766;2023-02-01T07:18:39;4.88;;;3.13;;
44516;SDS011;30223;17.182;-96.766;2023-02-01T07:21:06;5.05;;;3.30;;
44516;SDS011;30223;17.182;-96.766;2023-02-01T07:23:33;3.75;;;2.97;;
44516;SDS011;30223;17.182;-96.766;2023-02-01T07:26:01;5.07;;;3.47;;
44516;SDS011;30223;17.182;-96.766;2023-02-01T07:31:05;5.00;;;3.95;;
44516;SDS011;30223;17.182;-96.766;2023-02-01T07:33:33;6.20;;;3.05;;
44516;SDS011;30223;17.182;-96.766;2023-02-01T07:36:01;5.72;;;4.05;;
44516;SDS011;30223;17.182;-96.766;2023-02-01T07:38:30;4.38;;;3.25;;
44516;SDS011;30223;17.182;-96.766;2023-02-01T07:40:57;3.83;;;3.03;;
44516;SDS011;30223;17.182;-96.766;2023-02-01T07:43:25;5.97;;;4.17;;
44516;SDS011;30223;17.182;-96.766;2023-02-01T07:45:53;6.80;;;3.65;;
44516;SDS011;30223;17.182;-96.766;2023-02-01T07:48:21;5.63;;;3.42;;
44516;SDS011;30223;17.182;-96.766;2023-02-01T07:50:56;4.90;;;3.43;;
44516;SDS011;30223;17.182;-96.766;2023-02-01T07:53:28;4.80;;;3.42;;
44516;SDS011;30223;17.182;-96.766;2023-02-01T07:55:56;4.57;;;3.03;;
44516;SDS011;30223;17.182;-96.766;2023-02-01T07:58:23;7.47;;;3.70;;
44516;SDS011;30223;17.182;-96.766;2023-02-01T08:00:51;4.90;;;3.63;;
44516;SDS011;30223;17.182;-96.766;2023-02-01T08:03:36;3.40;;;3.10;;
44516;SDS011;30223;17.182;-96.766;2023-02-01T08:06:03;5.18;;;3.67;;
44516;SDS011;30223;17.182;-96.766;2023-02-01T08:08:30;4.57;;;3.80;;
44516;SDS011;30223;17.182;-96.766;2023-02-01T08:11:00;3.90;;;2.70;;
44516;SDS011;30223;17.182;-96.766;2023-02-01T08:13:29;4.22;;;3.20;;
44516;SDS011;30223;17.182;-96.766;2023-02-01T08:15:59;5.38;;;2.85;;
44516;SDS011;30223;17.182;-96.766;2023-02-01T08:18:28;3.20;;;2.53;;
44516;SDS011;30223;17.182;-96.766;2023-02-01T08:20:55;4.68;;;3.33;;
44516;SDS011;30223;17.182;-96.766;2023-02-01T08:23:22;4.00;;;3.17;;
44516;SDS011;30223;17.182;-96.766;2023-02-01T08:25:49;4.47;;;3.05;;
44516;SDS011;30223;17.182;-96.766;2023-02-01T08:28:16;7.40;;;3.03;;
44516;SDS011;30223;17.182;-96.766;2023-02-01T08:30:42;4.78;;;3.47;;
44516;SDS011;30223;17.182;-96.766;2023-02-01T08:33:09;4.07;;;3.08;;
44516;SDS011;30223;17.182;-96.766;2023-02-01T08:35:37;4.85;;;3.63;;
44516;SDS011;30223;17.182;-96.766;2023-02-01T08:38:04;5.00;;;2.88;;
44516;SDS011;30223;17.182;-96.766;2023-02-01T08:40:31;3.97;;;2.70;;
44516;SDS011;30223;17.182;-96.766;2023-02-01T08:42:57;4.85;;;3.25;;
44516;SDS011;30223;17.182;-96.766;2023-02-01T08:45:26;4.43;;;3.40;;
44516;SDS011;30223;17.182;-96.766;2023-02-01T08:47:57;4.70;;;2.95;;
44516;SDS011;30223;17.182;-96.766;2023-02-01T08:50:24;3.63;;;3.05;;
44516;SDS011;30223;17.182;-96.766;2023-02-01T08:52:51;3.97;;;3.03;;
44516;SDS011;30223;17.182;-96.766;2023-02-01T08:55:18;4.10;;;2.70;;
44516;SDS011;30223;17.182;-96.766;2023-02-01T08:57:45;4.45;;;3.40;;
44516;SDS011;30223;17.182;-96.766;2023-02-01T09:00:14;4.30;;;3.63;;
44516;SDS011;30223;17.182;-96.766;2023-02-01T09:02:42;3.63;;;2.58;;
44516;SDS011;30223;17.182;-96.766;2023-02-01T09:05:09;6.00;;;3.55;;
44516;SDS011;30223;17.182;-96.766;2023-02-01T09:07:36;4.28;;;2.47;;
44516;SDS011;30223;17.182;-96.766;2023-02-01T09:10:04;3.67;;;3.20;;
44516;SDS011;30223;17.182;-96.766;2023-02-01T09:12:31;4.60;;;3.15;;
44516;SDS011;30223;17.182;-96.766;2023-02-01T09:14:59;3.15;;;2.42;;
44516;SDS011;30223;17.182;-96.766;2023-02-01T09:17:26;4.38;;;3.13;;
44516;SDS011;30223;17.182;-96.766;2023-02-01T09:19:53;5.47;;;3.25;;
44516;SDS011;30223;17.182;-96.766;2023-02-01T09:22:20;4.70;;;2.58;;
44516;SDS011;30223;17.182;-96.766;2023-02-01T09:24:47;4.43;;;3.25;;
44516;SDS011;30223;17.182;-96.766;2023-02-01T09:27:13;4.70;;;2.85;;
44516;SDS011;30223;17.182;-96.766;2023-02-01T09:29:40;5.07;;;3.17;;
44516;SDS011;30223;17.182;-96.766;2023-02-01T09:32:07;4.38;;;3.10;;
44516;SDS011;30223;17.182;-96.766;2023-02-01T09:34:33;6.95;;;4.00;;
44516;SDS011;30223;17.182;-96.766;2023-02-01T09:37:00;4.57;;;2.90;;
44516;SDS011;30223;17.182;-96.766;2023-02-01T09:39:27;3.88;;;2.88;;
44516;SDS011;30223;17.182;-96.766;2023-02-01T09:41:57;3.67;;;2.53;;
44516;SDS011;30223;17.182;-96.766;2023-02-01T09:44:36;4.38;;;3.45;;
44516;SDS011;30223;17.182;-96.766;2023-02-01T09:47:10;4.22;;;3.05;;
44516;SDS011;30223;17.182;-96.766;2023-02-01T09:49:48;5.80;;;3.78;;
44516;SDS011;30223;17.182;-96.766;2023-02-01T09:52:19;3.58;;;2.83;;
44516;SDS011;30223;17.182;-96.766;2023-02-01T09:54:54;3.00;;;2.45;;
44516;SDS011;30223;17.182;-96.766;2023-02-01T09:57:39;3.30;;;2.70;;
44516;SDS011;30223;17.182;-96.766;2023-02-01T10:00:25;7.00;;;3.05;;
44516;SDS011;30223;17.182;-96.766;2023-02-01T10:03:01;3.88;;;2.65;;
44516;SDS011;30223;17.182;-96.766;2023-02-01T10:08:24;4.50;;;3.85;;
44516;SDS011;30223;17.182;-96.766;2023-02-01T10:10:56;3.03;;;2.53;;
44516;SDS011;30223;17.182;-96.766;2023-02-01T10:14:06;4.07;;;2.53;;
44516;SDS011;30223;17.182;-96.766;2023-02-01T10:17:08;4.03;;;2.63;;
44516;SDS011;30223;17.182;-96.766;2023-02-01T10:25:27;4.28;;;2.90;;
44516;SDS011;30223;17.182;-96.766;2023-02-01T10:28:18;3.80;;;3.20;;
44516;SDS011;30223;17.182;-96.766;2023-02-01T10:30:48;5.43;;;3.50;;
44516;SDS011;30223;17.182;-96.766;2023-02-01T10:33:34;3.33;;;2.60;;
44516;SDS011;30223;17.182;-96.766;2023-02-01T10:38:39;4.22;;;3.83;;
44516;SDS011;30223;17.182;-96.766;2023-02-01T10:41:12;5.10;;;2.55;;
44516;SDS011;30223;17.182;-96.766;2023-02-01T10:43:45;3.47;;;2.47;;
44516;SDS011;30223;17.182;-96.766;2023-02-01T10:46:18;2.70;;;2.45;;
44516;SDS011;30223;17.182;-96.766;2023-02-01T10:48:45;4.07;;;2.83;;
44516;SDS011;30223;17.182;-96.766;2023-02-01T10:54:17;4.05;;;2.67;;
44516;SDS011;30223;17.182;-96.766;2023-02-01T10:56:48;4.82;;;3.15;;
44516;SDS011;30223;17.182;-96.766;2023-02-01T10:59:18;4.35;;;3.00;;
44516;SDS011;30223;17.182;-96.766;2023-02-01T11:01:49;3.83;;;2.53;;
44516;SDS011;30223;17.182;-96.766;2023-02-01T11:04:23;3.75;;;2.83;;
44516;SDS011;30223;17.182;-96.766;2023-02-01T11:07:08;5.18;;;3.17;;
44516;SDS011;30223;17.182;-96.766;2023-02-01T11:09:50;3.72;;;3.22;;
44516;SDS011;30223;17.182;-96.766;2023-02-01T11:12:22;3.55;;;3.25;;
44516;SDS011;30223;17.182;-96.766;2023-02-01T11:17:40;3.40;;;2.33;;
44516;SDS011;30223;17.182;-96.766;2023-02-01T11:20:19;6.15;;;2.53;;
44516;SDS011;30223;17.182;-96.766;2023-02-01T11:23:04;3.90;;;2.65;;
44516;SDS011;30223;17.182;-96.766;2023-02-01T11:25:36;3.72;;;2.92;;
44516;SDS011;30223;17.182;-96.766;2023-02-01T11:28:03;4.22;;;2.70;;
44516;SDS011;30223;17.182;-96.766;2023-02-01T11:30:31;5.25;;;3.30;;
44516;SDS011;30223;17.182;-96.766;2023-02-01T11:33:03;4.13;;;2.92;;
44516;SDS011;30223;17.182;-96.766;2023-02-01T11:35:33;3.45;;;2.85;;
44516;SDS011;30223;17.182;-96.766;2023-02-01T11:38:10;3.90;;;2.72;;
44516;SDS011;30223;17.182;-96.766;2023-02-01T11:40:45;4.13;;;3.40;;
44516;SDS011;30223;17.182;-96.766;2023-02-01T11:48:27;4.60;;;2.63;;
44516;SDS011;30223;17.182;-96.766;2023-02-01T12:01:56;5.82;;;2.47;;
44516;SDS011;30223;17.182;-96.766;2023-02-01T12:10:28;3.30;;;3.00;;
44516;SDS011;30223;17.182;-96.766;2023-02-01T12:16:11;6.47;;;3.65;;
44516;SDS011;30223;17.182;-96.766;2023-02-01T12:18:49;4.03;;;2.80;;
44516;SDS011;30223;17.182;-96.766;2023-02-01T12:21:23;4.07;;;2.80;;
44516;SDS011;30223;17.182;-96.766;2023-02-01T12:27:38;4.40;;;3.00;;
44516;SDS011;30223;17.182;-96.766;2023-02-01T12:34:00;3.10;;;2.80;;
44516;SDS011;30223;17.182;-96.766;2023-02-01T12:36:06;3.78;;;2.88;;
44516;SDS011;30223;17.182;-96.766;2023-02-01T12:44:37;4.00;;;3.53;;
44516;SDS011;30223;17.182;-96.766;2023-02-01T12:52:48;3.58;;;3.08;;
44516;SDS011;30223;17.182;-96.766;2023-02-01T12:57:58;3.95;;;2.65;;
44516;SDS011;30223;17.182;-96.766;2023-02-01T13:00:43;6.15;;;2.55;;
44516;SDS011;30223;17.182;-96.766;2023-02-01T13:08:23;3.78;;;2.60;;
44516;SDS011;30223;17.182;-96.766;2023-02-01T13:11:03;4.32;;;3.17;;
44516;SDS011;30223;17.182;-96.766;2023-02-01T13:13:58;4.60;;;3.60;;
44516;SDS011;30223;17.182;-96.766;2023-02-01T13:16:43;3.58;;;2.67;;
44516;SDS011;30223;17.182;-96.766;2023-02-01T13:19:19;5.13;;;3.53;;
44516;SDS011;30223;17.182;-96.766;2023-02-01T13:22:06;5.50;;;3.60;;
44516;SDS011;30223;17.182;-96.766;2023-02-01T13:24:54;4.38;;;3.00;;
44516;SDS011;30223;17.182;-96.766;2023-02-01T13:27:30;5.13;;;3.65;;
44516;SDS011;30223;17.182;-96.766;2023-02-01T13:30:06;5.90;;;3.10;;
44516;SDS011;30223;17.182;-96.766;2023-02-01T13:32:59;5.40;;;3.47;;
44516;SDS011;30223;17.182;-96.766;2023-02-01T13:44:33;5.38;;;2.53;;
44516;SDS011;30223;17.182;-96.766;2023-02-01T13:47:10;4.07;;;3.35;;
44516;SDS011;30223;17.182;-96.766;2023-02-01T13:52:53;6.90;;;3.58;;
44516;SDS011;30223;17.182;-96.766;2023-02-01T13:55:32;5.78;;;3.53;;
44516;SDS011;30223;17.182;-96.766;2023-02-01T13:58:18;4.00;;;3.47;;
44516;SDS011;30223;17.182;-96.766;2023-02-01T14:00:47;7.57;;;3.00;;
44516;SDS011;30223;17.182;-96.766;2023-02-01T14:03:17;5.40;;;3.90;;
44516;SDS011;30223;17.182;-96.766;2023-02-01T14:08:22;6.88;;;4.50;;
44516;SDS011;30223;17.182;-96.766;2023-02-01T14:11:02;5.47;;;4.65;;
44516;SDS011;30223;17.182;-96.766;2023-02-01T14:23:42;6.20;;;4.50;;
44516;SDS011;30223;17.182;-96.766;2023-02-01T14:29:00;11.27;;;4.07;;
44516;SDS011;30223;17.182;-96.766;2023-02-01T14:31:35;5.30;;;4.30;;
44516;SDS011;30223;17.182;-96.766;2023-02-01T14:34:28;4.47;;;3.15;;
44516;SDS011;30223;17.182;-96.766;2023-02-01T14:36:52;5.97;;;4.72;;
44516;SDS011;30223;17.182;-96.766;2023-02-01T14:39:27;6.25;;;4.13;;
44516;SDS011;30223;17.182;-96.766;2023-02-01T14:55:55;10.15;;;4.57;;
44516;SDS011;30223;17.182;-96.766;2023-02-01T15:01:17;6.07;;;4.18;;
44516;SDS011;30223;17.182;-96.766;2023-02-01T15:08:49;8.10;;;3.47;;
44516;SDS011;30223;17.182;-96.766;2023-02-01T15:11:23;8.90;;;4.70;;
44516;SDS011;30223;17.182;-96.766;2023-02-01T15:13:51;7.43;;;3.83;;
44516;SDS011;30223;17.182;-96.766;2023-02-01T15:16:21;6.03;;;4.03;;
44516;SDS011;30223;17.182;-96.766;2023-02-01T15:18:50;6.38;;;3.75;;
44516;SDS011;30223;17.182;-96.766;2023-02-01T15:21:32;5.45;;;4.13;;
44516;SDS011;30223;17.182;-96.766;2023-02-01T15:24:11;11.00;;;4.22;;
44516;SDS011;30223;17.182;-96.766;2023-02-01T15:26:46;4.05;;;3.35;;
44516;SDS011;30223;17.182;-96.766;2023-02-01T15:29:13;4.82;;;3.53;;
44516;SDS011;30223;17.182;-96.766;2023-02-01T15:31:42;5.40;;;3.88;;
44516;SDS011;30223;17.182;-96.766;2023-02-01T15:34:10;4.70;;;4.00;;
44516;SDS011;30223;17.182;-96.766;2023-02-01T15:36:38;6.45;;;3.47;;
44516;SDS011;30223;17.182;-96.766;2023-02-01T15:39:24;11.85;;;3.50;;
44516;SDS011;30223;17.182;-96.766;2023-02-01T15:41:56;5.95;;;4.28;;
44516;SDS011;30223;17.182;-96.766;2023-02-01T15:44:37;7.30;;;4.35;;
44516;SDS011;30223;17.182;-96.766;2023-02-01T15:49:44;5.57;;;4.63;;
44516;SDS011;30223;17.182;-96.766;2023-02-01T15:54:56;7.05;;;4.25;;
44516;SDS011;30223;17.182;-96.766;2023-02-01T15:57:35;6.10;;;4.05;;
44516;SDS011;30223;17.182;-96.766;2023-02-01T16:00:48;8.25;;;4.03;;
44516;SDS011;30223;17.182;-96.766;2023-02-01T16:02:59;4.85;;;3.28;;
44516;SDS011;30223;17.182;-96.766;2023-02-01T16:10:41;6.15;;;4.00;;
44516;SDS011;30223;17.182;-96.766;2023-02-01T16:13:12;4.93;;;3.60;;
44516;SDS011;30223;17.182;-96.766;2023-02-01T16:15:40;6.10;;;4.85;;
44516;SDS011;30223;17.182;-96.766;2023-02-01T16:18:08;5.22;;;3.78;;
44516;SDS011;30223;17.182;-96.766;2023-02-01T16:20:36;6.43;;;3.63;;
44516;SDS011;30223;17.182;-96.766;2023-02-01T16:23:04;5.50;;;3.70;;
44516;SDS011;30223;17.182;-96.766;2023-02-01T16:25:31;3.92;;;3.53;;
44516;SDS011;30223;17.182;-96.766;2023-02-01T16:27:58;4.97;;;3.58;;
44516;SDS011;30223;17.182;-96.766;2023-02-01T16:30:25;7.18;;;3.53;;
44516;SDS011;30223;17.182;-96.766;2023-02-01T16:32:52;6.03;;;3.45;;
44516;SDS011;30223;17.182;-96.766;2023-02-01T16:35:22;5.45;;;3.47;;
44516;SDS011;30223;17.182;-96.766;2023-02-01T16:37:51;4.20;;;3.45;;
44516;SDS011;30223;17.182;-96.766;2023-02-01T16:40:18;6.47;;;4.07;;
44516;SDS011;30223;17.182;-96.766;2023-02-01T16:42:49;6.78;;;3.05;;
44516;SDS011;30223;17.182;-96.766;2023-02-01T16:45:17;5.07;;;3.20;;
44516;SDS011;30223;17.182;-96.766;2023-02-01T16:47:45;4.72;;;3.20;;
44516;SDS011;30223;17.182;-96.766;2023-02-01T16:50:18;7.10;;;3.92;;
44516;SDS011;30223;17.182;-96.766;2023-02-01T16:52:48;8.40;;;4.28;;
44516;SDS011;30223;17.182;-96.766;2023-02-01T16:55:16;6.63;;;4.25;;
44516;SDS011;30223;17.182;-96.766;2023-02-01T17:00:11;5.53;;;3.95;;
44516;SDS011;30223;17.182;-96.766;2023-02-01T17:02:38;5.90;;;3.30;;
44516;SDS011;30223;17.182;-96.766;2023-02-01T17:05:06;4.28;;;2.97;;
44516;SDS011;30223;17.182;-96.766;2023-02-01T17:07:34;6.63;;;3.70;;
44516;SDS011;30223;17.182;-96.766;2023-02-01T17:10:03;5.18;;;3.78;;
44516;SDS011;30223;17.182;-96.766;2023-02-01T17:12:32;6.95;;;3.97;;
44516;SDS011;30223;17.182;-96.766;2023-02-01T17:14:59;7.25;;;3.30;;
44516;SDS011;30223;17.182;-96.766;2023-02-01T17:17:28;6.35;;;3.20;;
44516;SDS011;30223;17.182;-96.766;2023-02-01T17:20:02;4.30;;;3.10;;
44516;SDS011;30223;17.182;-96.766;2023-02-01T17:22:29;6.63;;;4.07;;
44516;SDS011;30223;17.182;-96.766;2023-02-01T17:24:56;6.10;;;4.03;;
44516;SDS011;30223;17.182;-96.766;2023-02-01T17:27:22;7.65;;;3.92;;
44516;SDS011;30223;17.182;-96.766;2023-02-01T17:29:49;9.20;;;7.07;;
44516;SDS011;30223;17.182;-96.766;2023-02-01T17:32:23;6.63;;;5.72;;